Time;durP1;ratioP1;P1;durP2;ratioP2;P2;SDS_P1;SDS_P2;PMS_P1;PMS_P2;Temp;Humidity;BMP_temperature;BMP_pressure;BME280_temperature;BME280_humidity;BME280_pressure;Samples;Min_cycle;Max_cycle;Signal;HPM_P1;HPM_P2
2023/06/12 00:00:52;;;;;;;6.90;3.20;;;17.30;99.90;;;;;;5094635;28;20257;-58
2023/06/12 00:03:23;;;;;;;4.70;3.40;;;17.20;99.90;;;;;;5093316;28;20758;-59
2023/06/12 00:05:53;;;;;;;7.47;3.37;;;17.20;99.90;;;;;;5091759;28;20306;-59
2023/06/12 00:08:22;;;;;;;5.83;3.20;;;17.20;99.90;;;;;;5094764;28;20638;-60
2023/06/12 00:10:50;;;;;;;9.37;3.70;;;17.20;99.90;;;;;;5094930;28;20679;-59
2023/06/12 00:13:20;;;;;;;5.33;3.23;;;17.10;99.90;;;;;;5093647;28;20243;-59
2023/06/12 00:15:48;;;;;;;9.33;3.50;;;17.10;99.90;;;;;;5086322;28;20571;-59
2023/06/12 00:18:17;;;;;;;10.53;3.20;;;17.00;99.90;;;;;;5089682;28;20317;-59
2023/06/12 00:20:45;;;;;;;6.63;3.53;;;17.00;99.90;;;;;;5094568;28;20216;-60
2023/06/12 00:23:13;;;;;;;8.50;4.20;;;17.00;99.90;;;;;;5094471;28;20272;-60
2023/06/12 00:25:41;;;;;;;10.17;3.60;;;17.00;99.90;;;;;;5094293;28;20257;-59
2023/06/12 00:28:10;;;;;;;6.53;3.20;;;17.00;99.90;;;;;;5094646;28;20231;-60
2023/06/12 00:30:39;;;;;;;8.37;4.00;;;16.90;99.90;;;;;;5093851;28;20601;-59
2023/06/12 00:33:07;;;;;;;8.13;3.67;;;16.90;99.90;;;;;;5079083;28;20335;-59
2023/06/12 00:35:35;;;;;;;6.47;3.37;;;16.80;99.90;;;;;;5094231;28;20223;-59
2023/06/12 00:38:03;;;;;;;7.97;4.13;;;16.80;99.90;;;;;;5086050;28;20225;-59
2023/06/12 00:40:31;;;;;;;6.43;3.50;;;16.80;99.90;;;;;;5076053;28;20774;-59
2023/06/12 00:42:59;;;;;;;7.20;3.90;;;16.70;99.90;;;;;;5093029;28;20268;-59
2023/06/12 00:45:27;;;;;;;5.97;3.30;;;16.70;99.90;;;;;;5079336;28;20228;-59
2023/06/12 00:48:00;;;;;;;6.43;3.53;;;16.70;99.90;;;;;;5074778;28;20222;-59
2023/06/12 00:50:29;;;;;;;5.47;3.63;;;16.70;99.90;;;;;;5075369;28;20246;-60
2023/06/12 00:53:00;;;;;;;6.43;3.87;;;16.60;99.90;;;;;;5075758;28;20597;-59
2023/06/12 00:55:31;;;;;;;8.20;3.40;;;16.60;99.90;;;;;;5083856;28;20322;-59
2023/06/12 00:58:01;;;;;;;4.60;3.07;;;16.60;99.90;;;;;;5092121;28;20223;-59
2023/06/12 01:00:29;;;;;;;6.00;3.60;;;16.60;99.90;;;;;;5093290;28;20216;-59
2023/06/12 01:03:04;;;;;;;6.40;3.57;;;16.50;99.90;;;;;;5099631;28;20563;-59
2023/06/12 01:05:37;;;;;;;4.13;3.40;;;16.50;99.90;;;;;;5089880;28;20298;-59
2023/06/12 01:08:17;;;;;;;5.37;3.47;;;16.50;99.90;;;;;;5055665;28;20241;-59
2023/06/12 01:10:55;;;;;;;4.77;3.37;;;16.50;99.90;;;;;;5070298;28;20645;-59
2023/06/12 01:13:24;;;;;;;3.93;3.10;;;16.40;99.90;;;;;;5092147;28;20284;-59
2023/06/12 01:15:52;;;;;;;7.60;3.67;;;16.40;99.90;;;;;;5083765;28;20564;-59
2023/06/12 01:18:22;;;;;;;5.13;3.33;;;16.40;99.90;;;;;;5073813;28;20243;-59
2023/06/12 01:20:51;;;;;;;7.33;3.27;;;16.40;99.90;;;;;;5092154;28;20235;-59
2023/06/12 01:23:40;;;;;;;7.13;3.20;;;16.30;99.90;;;;;;5090984;28;20247;-59
2023/06/12 01:26:21;;;;;;;9.30;3.83;;;16.30;99.90;;;;;;5075962;28;20229;-59
2023/06/12 01:29:37;;;;;;;5.37;3.63;;;16.30;99.90;;;;;;5075104;28;20218;-59
2023/06/12 01:32:09;;;;;;;7.37;3.50;;;16.20;99.90;;;;;;5080944;28;20322;-59
2023/06/12 01:34:50;;;;;;;5.07;3.50;;;16.20;99.90;;;;;;5081187;28;20305;-59
2023/06/12 01:37:26;;;;;;;5.73;3.30;;;16.20;99.90;;;;;;5074822;28;20219;-59
2023/06/12 01:39:58;;;;;;;8.10;4.03;;;16.10;99.90;;;;;;5075036;28;20226;-59
2023/06/12 01:42:28;;;;;;;7.13;3.50;;;16.10;99.90;;;;;;5073143;28;20721;-59
2023/06/12 01:44:56;;;;;;;8.07;3.90;;;16.10;99.90;;;;;;5082211;28;20227;-59
2023/06/12 01:47:26;;;;;;;8.80;3.70;;;16.10;99.90;;;;;;5091442;28;20302;-59
2023/06/12 01:49:54;;;;;;;7.10;3.73;;;16.00;99.90;;;;;;5074854;28;20246;-59
2023/06/12 01:52:22;;;;;;;7.93;3.37;;;16.00;99.90;;;;;;5074146;28;20585;-59
2023/06/12 01:54:51;;;;;;;6.33;3.50;;;16.00;99.90;;;;;;5082753;28;20273;-59
2023/06/12 01:57:21;;;;;;;6.20;3.30;;;15.90;99.90;;;;;;5086703;28;20318;-59
2023/06/12 01:59:53;;;;;;;5.03;3.23;;;15.90;99.90;;;;;;5064223;28;20223;-59
2023/06/12 02:02:22;;;;;;;6.43;3.87;;;15.90;99.90;;;;;;5075873;28;20226;-59
2023/06/12 02:04:52;;;;;;;5.33;3.23;;;15.90;99.90;;;;;;5074379;28;20234;-59
2023/06/12 02:07:21;;;;;;;6.67;3.80;;;15.90;99.90;;;;;;5092740;28;20758;-59
2023/06/12 02:09:49;;;;;;;7.77;3.87;;;15.90;99.90;;;;;;5074443;28;20763;-59
2023/06/12 02:12:17;;;;;;;7.63;3.63;;;15.80;99.90;;;;;;5074486;28;20222;-59
2023/06/12 02:14:47;;;;;;;8.00;3.77;;;15.80;99.90;;;;;;5073143;28;20225;-59
2023/06/12 02:17:17;;;;;;;5.77;3.87;;;15.80;99.90;;;;;;5082039;28;20223;-59
2023/06/12 02:19:47;;;;;;;5.53;3.87;;;15.80;99.90;;;;;;5057668;28;20251;-59
2023/06/12 02:22:17;;;;;;;7.93;3.53;;;15.80;99.90;;;;;;5072579;28;20219;-59
2023/06/12 02:24:46;;;;;;;9.50;3.97;;;15.80;99.90;;;;;;5089694;28;20224;-59
2023/06/12 02:27:14;;;;;;;11.90;3.70;;;15.80;99.90;;;;;;5084610;28;20254;-59
2023/06/12 02:29:42;;;;;;;5.87;3.97;;;15.80;99.90;;;;;;5090963;28;20226;-59
2023/06/12 02:32:12;;;;;;;5.83;3.60;;;15.70;99.90;;;;;;5089542;28;20222;-59
2023/06/12 02:34:40;;;;;;;6.53;3.80;;;15.70;99.90;;;;;;5072637;28;20232;-59
2023/06/12 02:37:10;;;;;;;5.97;4.07;;;15.70;99.90;;;;;;5092096;28;20697;-59
2023/06/12 02:39:43;;;;;;;7.50;3.60;;;15.70;99.90;;;;;;5074181;28;20226;-59
2023/06/12 02:42:12;;;;;;;6.53;3.57;;;15.70;99.90;;;;;;5074253;28;20714;-59
2023/06/12 02:44:40;;;;;;;4.93;3.67;;;15.60;99.90;;;;;;5071629;28;20723;-59
2023/06/12 02:47:09;;;;;;;4.47;3.53;;;15.60;99.90;;;;;;5079952;28;20234;-59
2023/06/12 02:49:44;;;;;;;7.73;3.40;;;15.60;99.90;;;;;;5072376;28;20231;-59
2023/06/12 02:52:20;;;;;;;7.63;3.70;;;15.60;99.90;;;;;;5074215;28;20677;-59
2023/06/12 02:54:50;;;;;;;6.30;3.50;;;15.50;99.90;;;;;;5083964;28;20218;-59
2023/06/12 02:57:18;;;;;;;5.13;3.30;;;15.50;99.90;;;;;;5084754;28;20254;-60
2023/06/12 02:59:46;;;;;;;5.07;3.47;;;15.50;99.90;;;;;;5090815;28;20676;-59
2023/06/12 03:02:26;;;;;;;7.43;3.63;;;15.50;99.90;;;;;;5083711;28;20239;-60
2023/06/12 03:04:55;;;;;;;6.10;3.77;;;15.40;99.90;;;;;;5086970;28;20690;-59
2023/06/12 03:07:28;;;;;;;6.77;4.00;;;15.40;99.90;;;;;;5071369;28;20223;-59
2023/06/12 03:09:58;;;;;;;6.53;3.27;;;15.40;99.90;;;;;;5077689;28;20222;-59
2023/06/12 03:12:26;;;;;;;6.23;3.47;;;15.40;99.90;;;;;;5077603;28;20299;-59
2023/06/12 03:14:56;;;;;;;6.13;3.27;;;15.40;99.90;;;;;;5077812;28;20255;-59
2023/06/12 03:17:24;;;;;;;6.93;3.67;;;15.40;99.90;;;;;;5079877;28;20250;-59
2023/06/12 03:19:52;;;;;;;5.87;3.80;;;15.40;99.90;;;;;;5076675;28;20239;-59
2023/06/12 03:22:20;;;;;;;6.27;3.50;;;15.30;99.90;;;;;;5077289;28;20261;-59
2023/06/12 03:24:53;;;;;;;4.20;3.20;;;15.30;99.90;;;;;;5091898;28;20277;-59
2023/06/12 03:27:22;;;;;;;9.10;3.53;;;15.40;99.90;;;;;;5085706;28;20283;-59
2023/06/12 03:29:50;;;;;;;5.93;3.13;;;15.40;99.90;;;;;;5068075;28;20255;-59
2023/06/12 03:32:19;;;;;;;7.37;3.60;;;15.40;99.90;;;;;;5097266;28;20237;-59
2023/06/12 03:34:52;;;;;;;5.07;3.00;;;15.40;99.90;;;;;;5075746;28;20272;-59
2023/06/12 03:37:21;;;;;;;4.50;3.20;;;15.50;99.90;;;;;;5077010;28;20222;-59
2023/06/12 03:39:49;;;;;;;7.03;3.33;;;15.50;99.90;;;;;;5077142;28;20230;-59
2023/06/12 03:42:19;;;;;;;7.03;3.63;;;15.60;99.90;;;;;;5076823;28;20222;-59
2023/06/12 03:44:54;;;;;;;6.97;3.47;;;15.60;99.90;;;;;;5085280;28;20219;-59
2023/06/12 03:47:24;;;;;;;4.07;3.33;;;15.70;99.90;;;;;;5077136;28;20234;-59
2023/06/12 03:49:52;;;;;;;10.17;3.10;;;15.70;99.90;;;;;;5093721;28;20689;-59
2023/06/12 03:52:21;;;;;;;4.73;3.10;;;15.80;99.90;;;;;;5072790;28;20338;-57
2023/06/12 03:54:51;;;;;;;5.93;3.50;;;15.80;99.90;;;;;;5083701;28;20237;-59
2023/06/12 03:57:21;;;;;;;6.03;4.13;;;15.80;99.90;;;;;;5093824;28;20230;-59
2023/06/12 03:59:49;;;;;;;4.50;3.90;;;15.90;99.90;;;;;;5093809;28;20321;-59
2023/06/12 04:02:19;;;;;;;6.10;3.50;;;15.90;99.90;;;;;;5079484;28;20227;-59
2023/06/12 04:04:49;;;;;;;6.30;3.53;;;16.00;99.90;;;;;;5069234;28;20227;-58
2023/06/12 04:07:21;;;;;;;4.60;3.30;;;16.10;99.90;;;;;;5076689;28;20705;-59
2023/06/12 04:09:49;;;;;;;4.27;3.13;;;16.20;99.90;;;;;;5076101;28;20228;-59
2023/06/12 04:12:17;;;;;;;4.43;3.10;;;16.20;99.90;;;;;;5090932;28;20227;-59
2023/06/12 04:14:45;;;;;;;9.53;3.80;;;16.20;99.90;;;;;;5084866;28;20342;-59
2023/06/12 04:17:13;;;;;;;5.23;3.37;;;16.20;99.90;;;;;;5089334;28;20284;-59
2023/06/12 04:19:42;;;;;;;7.43;3.23;;;16.30;99.90;;;;;;5090295;28;20273;-59
2023/06/12 04:22:12;;;;;;;6.23;3.60;;;16.40;99.90;;;;;;5083841;28;20222;-59
2023/06/12 04:24:42;;;;;;;8.67;3.40;;;16.50;99.90;;;;;;5084251;28;20229;-59
2023/06/12 04:27:10;;;;;;;4.00;3.37;;;16.60;99.90;;;;;;5094434;28;20219;-59
2023/06/12 04:29:40;;;;;;;6.07;3.33;;;16.70;99.90;;;;;;5094442;28;20312;-59
2023/06/12 04:32:09;;;;;;;5.17;3.60;;;16.80;99.90;;;;;;5075595;28;20284;-58
2023/06/12 04:34:39;;;;;;;4.17;3.43;;;16.90;99.90;;;;;;5093297;28;20251;-59
2023/06/12 04:37:11;;;;;;;5.47;4.00;;;17.00;99.90;;;;;;5094448;28;20259;-59
2023/06/12 04:39:40;;;;;;;7.53;4.10;;;17.00;99.90;;;;;;5084234;28;20696;-59
2023/06/12 04:42:10;;;;;;;6.93;3.77;;;17.00;99.90;;;;;;5076101;28;20697;-59
2023/06/12 04:44:39;;;;;;;6.43;3.67;;;17.20;99.90;;;;;;5066171;28;20228;-59
2023/06/12 04:47:10;;;;;;;6.67;3.77;;;17.30;99.90;;;;;;5063134;28;20230;-59
2023/06/12 04:49:40;;;;;;;5.70;4.00;;;17.40;99.90;;;;;;5088829;28;20305;-59
2023/06/12 04:52:12;;;;;;;6.47;3.53;;;17.50;99.90;;;;;;5088621;28;20228;-58
2023/06/12 04:54:44;;;;;;;7.67;3.90;;;17.60;99.90;;;;;;5075437;28;20284;-60
2023/06/12 04:57:13;;;;;;;5.67;3.43;;;17.70;99.90;;;;;;5094208;28;20629;-59
2023/06/12 04:59:44;;;;;;;4.90;3.53;;;17.90;99.90;;;;;;5076335;28;20626;-59
2023/06/12 05:02:13;;;;;;;6.07;3.80;;;18.00;99.90;;;;;;5076305;28;20231;-60
2023/06/12 05:04:43;;;;;;;5.70;3.70;;;18.20;99.90;;;;;;5070913;28;20233;-59
2023/06/12 05:07:16;;;;;;;5.30;3.90;;;18.30;99.90;;;;;;5094666;28;20279;-59
2023/06/12 05:09:47;;;;;;;6.47;4.10;;;18.40;99.90;;;;;;5075906;28;20331;-59
2023/06/12 05:12:15;;;;;;;5.43;4.00;;;18.50;99.90;;;;;;5074862;28;20235;-60
2023/06/12 05:14:44;;;;;;;7.70;3.83;;;18.70;99.90;;;;;;5075557;28;20586;-60
2023/06/12 05:17:12;;;;;;;6.10;4.23;;;18.80;99.90;;;;;;5075898;28;20232;-59
2023/06/12 05:19:41;;;;;;;7.30;4.33;;;19.00;99.90;;;;;;5072179;28;20699;-59
2023/06/12 05:22:09;;;;;;;6.27;3.80;;;19.10;99.90;;;;;;5056050;28;20227;-59
2023/06/12 05:24:39;;;;;;;5.63;4.03;;;19.20;99.90;;;;;;5055299;28;20230;-59
2023/06/12 05:27:07;;;;;;;6.97;4.57;;;19.30;99.90;;;;;;5088889;28;20251;-57
2023/06/12 05:29:36;;;;;;;10.83;5.03;;;19.50;99.90;;;;;;5060776;28;20224;-57
2023/06/12 05:32:05;;;;;;;6.30;4.37;;;19.40;99.90;;;;;;5058188;28;20236;-57
2023/06/12 05:34:36;;;;;;;6.70;4.80;;;19.60;99.90;;;;;;5061251;28;20812;-60
2023/06/12 05:37:04;;;;;;;8.50;4.50;;;19.70;99.90;;;;;;5060865;28;20235;-58
2023/06/12 05:39:33;;;;;;;11.23;5.20;;;19.80;99.90;;;;;;5067139;28;20724;-59
2023/06/12 05:42:05;;;;;;;5.63;4.57;;;19.90;99.90;;;;;;5063371;28;20217;-57
2023/06/12 05:44:34;;;;;;;5.57;4.47;;;20.10;99.90;;;;;;5063653;28;20229;-53
2023/06/12 05:47:03;;;;;;;5.93;4.37;;;20.30;99.90;;;;;;5065076;28;20285;-56
2023/06/12 05:49:31;;;;;;;5.83;4.50;;;20.40;99.90;;;;;;5061850;28;20854;-59
2023/06/12 05:51:59;;;;;;;6.53;4.90;;;20.40;99.90;;;;;;5062854;28;20225;-57
2023/06/12 05:54:27;;;;;;;9.13;5.00;;;20.60;99.90;;;;;;5067342;28;20303;-59
2023/06/12 05:57:00;;;;;;;7.07;4.50;;;20.70;99.90;;;;;;5065540;28;20791;-59
2023/06/12 05:59:30;;;;;;;8.50;5.23;;;20.70;99.90;;;;;;5061438;28;20320;-56
2023/06/12 06:02:00;;;;;;;9.00;4.60;;;20.70;99.90;;;;;;5060657;28;20867;-54
2023/06/12 06:04:30;;;;;;;7.93;4.97;;;20.60;99.90;;;;;;5064543;28;20229;-56
2023/06/12 06:06:58;;;;;;;9.67;5.43;;;20.60;99.90;;;;;;5084482;28;20233;-59
2023/06/12 06:09:40;;;;;;;6.87;5.13;;;20.70;99.90;;;;;;5060918;28;20720;-58
2023/06/12 06:12:08;;;;;;;8.13;4.87;;;20.70;99.90;;;;;;5064571;28;20260;-58
2023/06/12 06:14:38;;;;;;;7.47;4.90;;;20.60;99.90;;;;;;5062377;28;20232;-59
2023/06/12 06:17:06;;;;;;;6.23;5.03;;;20.70;99.90;;;;;;5083491;28;20239;-57
2023/06/12 06:19:34;;;;;;;9.70;5.10;;;20.70;99.90;;;;;;5060295;28;20613;-59
2023/06/12 06:22:04;;;;;;;11.27;5.13;;;20.40;99.90;;;;;;5083930;28;20233;-57
2023/06/12 06:24:33;;;;;;;7.23;4.57;;;20.40;99.90;;;;;;5062994;28;20251;-59
2023/06/12 06:27:02;;;;;;;7.63;5.17;;;20.70;99.90;;;;;;5060368;28;20230;-58
2023/06/12 06:29:30;;;;;;;8.60;5.20;;;21.10;99.90;;;;;;5061309;28;20299;-56
2023/06/12 06:31:59;;;;;;;7.90;5.10;;;21.60;99.90;;;;;;5085847;28;20321;-59
2023/06/12 06:34:27;;;;;;;10.20;5.13;;;22.00;99.90;;;;;;5085089;28;20241;-59
2023/06/12 06:36:56;;;;;;;7.17;5.23;;;22.20;99.90;;;;;;5085029;28;20227;-59
2023/06/12 06:39:25;;;;;;;5.73;5.13;;;22.50;99.90;;;;;;5062971;28;20271;-58
2023/06/12 06:41:53;;;;;;;9.13;5.10;;;22.70;99.90;;;;;;5086598;28;20703;-58
2023/06/12 06:44:21;;;;;;;7.07;5.40;;;22.90;99.90;;;;;;5066857;28;20234;-56
2023/06/12 06:46:49;;;;;;;8.13;5.57;;;23.00;99.90;;;;;;5075572;28;20236;-58
2023/06/12 06:49:21;;;;;;;5.93;4.93;;;23.20;99.90;;;;;;5082950;28;20268;-59
2023/06/12 06:51:50;;;;;;;7.23;5.73;;;23.30;99.90;;;;;;5085359;28;20278;-59
2023/06/12 06:54:18;;;;;;;6.07;5.10;;;23.20;99.90;;;;;;5085749;28;20226;-59
2023/06/12 06:56:47;;;;;;;6.20;5.37;;;23.40;99.90;;;;;;5092666;28;20280;-59
2023/06/12 06:59:15;;;;;;;7.80;5.20;;;23.80;99.90;;;;;;5092208;28;20225;-59
2023/06/12 07:01:43;;;;;;;7.27;4.40;;;23.90;99.90;;;;;;5085783;28;20231;-57
2023/06/12 07:04:12;;;;;;;9.67;5.30;;;24.20;99.90;;;;;;5086722;28;20230;-58
2023/06/12 07:06:42;;;;;;;15.00;5.43;;;24.60;99.90;;;;;;5090093;28;20226;-59
2023/06/12 07:09:11;;;;;;;7.17;5.50;;;24.80;99.90;;;;;;5067091;28;20248;-58
2023/06/12 07:11:39;;;;;;;10.17;5.33;;;24.90;99.90;;;;;;5068326;28;20223;-58
2023/06/12 07:14:07;;;;;;;7.90;5.07;;;24.80;99.90;;;;;;5066118;28;20294;-59
2023/06/12 07:16:35;;;;;;;8.37;5.50;;;25.10;99.90;;;;;;5087632;28;20818;-59
2023/06/12 07:19:04;;;;;;;9.40;5.63;;;25.20;99.90;;;;;;5084584;28;20240;-56
2023/06/12 07:21:32;;;;;;;7.63;4.97;;;25.30;99.90;;;;;;5063306;28;20232;-59
2023/06/12 07:24:02;;;;;;;8.30;5.83;;;25.80;99.90;;;;;;5086797;28;20232;-59
2023/06/12 07:26:30;;;;;;;8.73;5.60;;;26.00;99.90;;;;;;5065404;28;20359;-56
2023/06/12 07:29:04;;;;;;;8.23;5.40;;;26.10;99.90;;;;;;5070006;28;20565;-58
2023/06/12 07:31:33;;;;;;;7.17;5.57;;;26.20;99.90;;;;;;5082390;28;20237;-58
2023/06/12 07:34:02;;;;;;;8.30;5.60;;;26.40;99.90;;;;;;5089656;28;20549;-59
2023/06/12 07:36:35;;;;;;;6.83;5.60;;;26.40;99.90;;;;;;5081846;28;20249;-57
2023/06/12 07:39:05;;;;;;;6.50;5.57;;;26.50;99.90;;;;;;5081444;28;20233;-56
2023/06/12 07:41:38;;;;;;;8.93;5.70;;;26.20;99.90;;;;;;5088545;28;20614;-59
2023/06/12 07:44:06;;;;;;;7.23;5.93;;;26.30;99.90;;;;;;5084275;28;20252;-58
2023/06/12 07:46:35;;;;;;;7.33;5.37;;;26.30;99.90;;;;;;5087907;28;20687;-57
2023/06/12 07:49:03;;;;;;;10.00;5.47;;;26.60;99.90;;;;;;5080773;28;20230;-59
2023/06/12 07:51:33;;;;;;;6.67;5.37;;;26.90;99.90;;;;;;5067145;28;20233;-58
2023/06/12 07:54:02;;;;;;;9.97;5.70;;;27.00;99.90;;;;;;5066229;28;20241;-58
2023/06/12 07:56:32;;;;;;;6.73;5.37;;;27.10;99.90;;;;;;5063375;28;20767;-59
2023/06/12 07:59:07;;;;;;;11.43;6.00;;;27.10;99.90;;;;;;5060763;28;20727;-58
2023/06/12 08:01:36;;;;;;;6.73;6.03;;;27.40;99.90;;;;;;5084393;28;20238;-59
2023/06/12 08:04:10;;;;;;;7.63;5.43;;;27.50;99.90;;;;;;5064448;28;20328;-58
2023/06/12 08:06:40;;;;;;;6.67;5.57;;;27.40;99.90;;;;;;5068983;28;20340;-59
2023/06/12 08:09:09;;;;;;;8.77;5.50;;;27.50;99.90;;;;;;5061446;28;20254;-57
2023/06/12 08:11:40;;;;;;;8.30;5.53;;;27.60;99.90;;;;;;5063889;28;20620;-56
2023/06/12 08:14:09;;;;;;;5.90;5.30;;;27.70;99.90;;;;;;5065196;28;20237;-57
2023/06/12 08:16:38;;;;;;;9.20;5.60;;;27.80;99.90;;;;;;5082568;28;20226;-57
2023/06/12 08:19:07;;;;;;;6.93;5.50;;;28.20;99.90;;;;;;5052383;28;20816;-56
2023/06/12 08:21:36;;;;;;;9.10;5.20;;;28.60;99.90;;;;;;5051730;28;20239;-58
2023/06/12 08:24:07;;;;;;;6.93;5.30;;;28.50;98.40;;;;;;5052162;28;20347;-58
2023/06/12 08:26:36;;;;;;;5.80;5.30;;;28.50;99.40;;;;;;5054849;28;20249;-57
2023/06/12 08:29:06;;;;;;;11.67;5.30;;;28.60;98.80;;;;;;5055249;28;21002;-58
2023/06/12 08:31:37;;;;;;;8.67;5.50;;;28.80;97.90;;;;;;5054659;28;20242;-56
2023/06/12 08:34:05;;;;;;;8.93;4.83;;;28.90;97.40;;;;;;5060127;28;20981;-59
2023/06/12 08:36:35;;;;;;;5.97;5.37;;;29.00;96.90;;;;;;5055374;28;20746;-58
2023/06/12 08:39:04;;;;;;;6.17;4.90;;;28.70;96.80;;;;;;5064517;28;20279;-58
2023/06/12 08:41:35;;;;;;;6.07;5.00;;;28.90;96.80;;;;;;5077862;28;20226;-59
2023/06/12 08:44:03;;;;;;;8.63;5.30;;;29.20;96.10;;;;;;5079725;28;20757;-58
2023/06/12 08:46:46;;;;;;;8.13;5.27;;;29.10;96.80;;;;;;5076375;28;20949;-57
2023/06/12 08:49:15;;;;;;;5.80;5.30;;;29.50;96.60;;;;;;5078223;28;20632;-59
2023/06/12 08:51:44;;;;;;;10.43;5.10;;;29.80;95.00;;;;;;5079074;28;20223;-58
2023/06/12 08:54:13;;;;;;;6.60;4.70;;;29.60;95.60;;;;;;5081019;28;20234;-59
2023/06/12 08:56:43;;;;;;;8.60;5.30;;;29.80;93.80;;;;;;5079328;28;20219;-59
2023/06/12 08:59:11;;;;;;;5.83;4.83;;;29.90;93.50;;;;;;5074870;28;20226;-59
2023/06/12 09:01:45;;;;;;;5.23;4.70;;;29.60;93.60;;;;;;5074836;28;20252;-56
2023/06/12 09:04:41;;;;;;;6.37;5.07;;;29.50;93.30;;;;;;5075081;28;20245;-59
2023/06/12 09:07:11;;;;;;;9.73;5.00;;;29.80;93.70;;;;;;5073929;28;20345;-59
2023/06/12 09:09:40;;;;;;;6.50;4.97;;;29.50;92.50;;;;;;5076061;28;20317;-58
2023/06/12 09:12:12;;;;;;;5.63;5.10;;;29.50;92.80;;;;;;5077415;28;20284;-58
2023/06/12 09:14:41;;;;;;;7.47;5.00;;;29.70;92.60;;;;;;5078357;28;20225;-58
2023/06/12 09:17:10;;;;;;;8.30;4.97;;;29.90;92.40;;;;;;5074087;28;20227;-59
2023/06/12 09:19:42;;;;;;;8.83;5.10;;;29.90;91.70;;;;;;5081775;28;20253;-58
2023/06/12 09:22:10;;;;;;;5.67;5.00;;;30.20;91.20;;;;;;5084584;28;20249;-56
2023/06/12 09:24:40;;;;;;;5.50;4.90;;;30.70;91.30;;;;;;5084339;28;20227;-59
2023/06/12 09:27:08;;;;;;;5.63;4.63;;;30.60;90.30;;;;;;5084145;28;20336;-58
2023/06/12 09:29:38;;;;;;;5.37;4.73;;;30.80;88.20;;;;;;5081445;28;20235;-60
2023/06/12 09:32:08;;;;;;;5.50;4.87;;;30.40;84.80;;;;;;5083083;28;20229;-59
2023/06/12 09:34:37;;;;;;;8.77;5.13;;;30.10;83.00;;;;;;5083205;28;20702;-60
2023/06/12 09:37:08;;;;;;;6.47;4.70;;;30.00;83.80;;;;;;5082451;28;20589;-59
2023/06/12 09:39:36;;;;;;;6.50;4.90;;;30.40;83.50;;;;;;5082054;28;20243;-59
2023/06/12 09:42:04;;;;;;;7.50;4.83;;;30.30;82.00;;;;;;5083473;28;20226;-59
2023/06/12 09:44:32;;;;;;;6.50;4.80;;;30.40;81.00;;;;;;5083796;28;20241;-59
2023/06/12 09:47:02;;;;;;;12.67;4.67;;;30.20;80.20;;;;;;5082525;28;20704;-56
2023/06/12 09:49:30;;;;;;;8.93;4.50;;;30.00;80.00;;;;;;5082086;28;20217;-59
2023/06/12 09:52:03;;;;;;;6.47;4.80;;;30.20;78.70;;;;;;5081627;28;20238;-59
2023/06/12 09:54:33;;;;;;;5.40;4.90;;;30.80;80.10;;;;;;5083654;28;20229;-57
2023/06/12 09:57:06;;;;;;;9.57;4.80;;;31.10;77.90;;;;;;5081849;28;20628;-58
2023/06/12 09:59:35;;;;;;;8.47;4.90;;;31.20;76.10;;;;;;5082111;28;20240;-60
2023/06/12 10:02:10;;;;;;;6.30;4.37;;;30.90;76.30;;;;;;5080359;28;20235;-59
2023/06/12 10:04:46;;;;;;;6.30;4.90;;;30.90;76.90;;;;;;5086793;28;20223;-59
2023/06/12 10:07:19;;;;;;;7.83;4.80;;;31.00;76.40;;;;;;5083619;28;20228;-58
2023/06/12 10:09:51;;;;;;;5.07;4.57;;;31.30;75.40;;;;;;5083915;28;20215;-58
2023/06/12 10:12:20;;;;;;;8.13;5.00;;;30.80;75.30;;;;;;5083020;28;20581;-59
2023/06/12 10:14:48;;;;;;;6.03;4.43;;;30.70;76.60;;;;;;5084144;28;20224;-58
2023/06/12 10:17:18;;;;;;;5.03;4.37;;;31.00;75.00;;;;;;5082800;28;20236;-59
2023/06/12 10:19:49;;;;;;;8.23;4.60;;;31.40;75.70;;;;;;5080111;28;20255;-57
2023/06/12 10:22:17;;;;;;;6.07;4.40;;;31.70;74.60;;;;;;5082765;28;20233;-58
2023/06/12 10:24:47;;;;;;;5.47;4.70;;;31.60;73.80;;;;;;5084795;28;20340;-59
2023/06/12 10:27:17;;;;;;;7.63;4.57;;;31.40;72.80;;;;;;5084145;28;20250;-57
2023/06/12 10:29:54;;;;;;;6.27;4.30;;;30.90;71.50;;;;;;5079843;28;20317;-59
2023/06/12 10:32:22;;;;;;;9.00;4.60;;;30.60;72.30;;;;;;5081332;28;20244;-58
2023/06/12 10:34:54;;;;;;;4.90;4.10;;;30.50;72.20;;;;;;5082329;28;20307;-59
2023/06/12 10:37:24;;;;;;;5.73;4.53;;;30.70;70.10;;;;;;5082265;28;20237;-58
2023/06/12 10:40:10;;;;;;;7.33;4.20;;;30.90;70.50;;;;;;5080129;28;20705;-56
2023/06/12 10:42:41;;;;;;;6.93;4.50;;;31.00;70.40;;;;;;5082628;28;20314;-58
2023/06/12 10:45:21;;;;;;;5.80;4.57;;;30.80;68.80;;;;;;5081419;28;20266;-59
2023/06/12 10:48:12;;;;;;;4.80;4.33;;;30.90;68.40;;;;;;5080844;28;20313;-59
2023/06/12 10:50:44;;;;;;;5.63;4.57;;;30.80;66.40;;;;;;5078013;28;20231;-57
2023/06/12 10:53:14;;;;;;;7.37;4.43;;;31.10;67.70;;;;;;5077353;28;20233;-57
2023/06/12 10:55:43;;;;;;;8.77;4.73;;;31.20;66.00;;;;;;5082059;28;20232;-59
2023/06/12 10:58:14;;;;;;;6.27;4.53;;;31.60;66.00;;;;;;5081467;28;20226;-56
2023/06/12 11:00:46;;;;;;;5.97;4.60;;;31.90;64.40;;;;;;5081561;28;20234;-59
2023/06/12 11:03:18;;;;;;;5.63;4.40;;;31.90;64.80;;;;;;5074081;28;20298;-58
2023/06/12 11:05:48;;;;;;;5.17;3.87;;;32.00;64.50;;;;;;5084015;28;20222;-59
2023/06/12 11:08:16;;;;;;;6.03;3.87;;;31.60;63.10;;;;;;5072668;28;20237;-59
2023/06/12 11:10:45;;;;;;;7.90;3.83;;;31.90;62.80;;;;;;5085295;28;20250;-58
2023/06/12 11:13:14;;;;;;;5.23;3.77;;;32.30;62.60;;;;;;5083916;28;20227;-58
2023/06/12 11:15:44;;;;;;;4.17;3.77;;;32.30;62.30;;;;;;5085137;28;20226;-57
2023/06/12 11:18:13;;;;;;;8.00;4.03;;;32.80;61.50;;;;;;5085432;28;20290;-56
2023/06/12 11:20:42;;;;;;;5.70;4.17;;;32.40;59.70;;;;;;5084841;28;20238;-59
2023/06/12 11:23:10;;;;;;;5.37;3.80;;;32.40;60.00;;;;;;5085157;28;20272;-58
2023/06/12 11:25:44;;;;;;;8.20;4.10;;;32.20;59.80;;;;;;5083840;28;20261;-59
2023/06/12 11:28:15;;;;;;;6.30;4.10;;;32.10;59.70;;;;;;5089498;28;20236;-59
2023/06/12 11:30:47;;;;;;;5.30;3.93;;;31.50;59.30;;;;;;5086767;28;20338;-56
2023/06/12 11:33:35;;;;;;;4.40;4.00;;;31.70;60.00;;;;;;5090142;28;20704;-59
2023/06/12 11:36:04;;;;;;;4.37;3.93;;;32.10;58.90;;;;;;5089122;28;20232;-59
2023/06/12 11:38:32;;;;;;;6.53;4.10;;;32.10;58.50;;;;;;5087125;28;20231;-59
2023/06/12 11:41:04;;;;;;;8.30;3.80;;;32.30;58.60;;;;;;5083671;28;20903;-59
2023/06/12 11:43:36;;;;;;;5.20;3.73;;;32.20;58.60;;;;;;5084720;28;20226;-57
2023/06/12 11:46:05;;;;;;;5.23;3.93;;;32.20;58.30;;;;;;5086872;28;20222;-59
2023/06/12 11:48:33;;;;;;;4.73;4.13;;;32.10;57.20;;;;;;5085654;28;20341;-59
2023/06/12 11:51:07;;;;;;;5.57;3.97;;;31.90;57.30;;;;;;5084802;28;21198;-58
2023/06/12 11:53:36;;;;;;;4.87;4.00;;;31.90;57.20;;;;;;5084639;28;20228;-59
2023/06/12 11:56:05;;;;;;;6.30;3.87;;;31.70;57.60;;;;;;5084763;28;20244;-57
2023/06/12 11:58:40;;;;;;;7.23;4.10;;;31.70;58.00;;;;;;5084270;28;20246;-60
2023/06/12 12:01:13;;;;;;;5.70;4.07;;;31.80;58.20;;;;;;5081965;28;20329;-59
2023/06/12 12:03:44;;;;;;;6.53;4.07;;;31.40;57.50;;;;;;5083547;28;20425;-59
2023/06/12 12:06:13;;;;;;;10.57;4.20;;;31.20;56.40;;;;;;5085583;28;20662;-60
2023/06/12 12:08:42;;;;;;;8.37;3.93;;;31.10;57.60;;;;;;5095321;28;20228;-59
2023/06/12 12:11:18;;;;;;;3.80;3.50;;;31.40;58.20;;;;;;5093787;28;20225;-59
2023/06/12 12:13:52;;;;;;;10.30;3.97;;;30.60;56.90;;;;;;5093966;28;20684;-59
2023/06/12 12:16:25;;;;;;;3.93;3.43;;;30.60;58.20;;;;;;5094728;28;20230;-57
2023/06/12 12:18:53;;;;;;;8.17;3.80;;;30.10;57.50;;;;;;5094690;28;20244;-59
2023/06/12 12:21:23;;;;;;;5.17;3.90;;;30.10;58.10;;;;;;5093451;28;20222;-59
2023/06/12 12:23:53;;;;;;;6.57;3.70;;;30.20;58.60;;;;;;5065870;28;20227;-59
2023/06/12 12:26:22;;;;;;;5.63;3.70;;;30.20;59.30;;;;;;5094626;28;20677;-59
2023/06/12 12:28:51;;;;;;;8.33;3.70;;;30.10;58.50;;;;;;5094506;28;20226;-58
2023/06/12 12:31:19;;;;;;;5.97;3.97;;;30.20;59.80;;;;;;5093082;28;20599;-59
2023/06/12 12:33:47;;;;;;;5.37;3.60;;;30.20;58.20;;;;;;5092034;28;20730;-59
2023/06/12 12:36:16;;;;;;;6.57;3.60;;;30.10;59.20;;;;;;5094151;28;20220;-59
2023/06/12 12:38:44;;;;;;;5.30;3.50;;;30.00;59.60;;;;;;5092995;28;20307;-59
2023/06/12 12:41:12;;;;;;;5.70;3.73;;;29.90;60.30;;;;;;5094030;28;20232;-59
2023/06/12 12:43:40;;;;;;;3.77;3.40;;;29.80;59.60;;;;;;5093763;28;20267;-59
2023/06/12 12:46:09;;;;;;;5.20;4.00;;;29.70;59.20;;;;;;5094411;28;20223;-60
2023/06/12 12:48:38;;;;;;;6.63;3.47;;;29.50;58.90;;;;;;5093956;28;20704;-59
2023/06/12 12:51:07;;;;;;;7.00;3.87;;;29.40;59.60;;;;;;5094477;28;20707;-58
2023/06/12 12:53:38;;;;;;;4.77;3.70;;;29.40;58.90;;;;;;5091769;28;20220;-59
2023/06/12 12:56:06;;;;;;;6.80;3.53;;;29.40;59.00;;;;;;5092855;28;20227;-60
2023/06/12 12:58:35;;;;;;;6.57;3.47;;;29.20;59.40;;;;;;5093646;28;20219;-59
2023/06/12 13:01:04;;;;;;;5.37;3.40;;;29.30;58.60;;;;;;5093419;28;20622;-59